Time;durP1;ratioP1;P1;durP2;ratioP2;P2;SDS_P1;SDS_P2;PMS_P1;PMS_P2;Temp;Humidity;BMP_temperature;BMP_pressure;BME280_temperature;BME280_humidity;BME280_pressure;Samples;Min_cycle;Max_cycle;Signal;HPM_P1;HPM_P2
2022/03/17 00:02:05;;;;;;;26.43;25.40;;;22.40;43.00;;;;;;5092877;28;20480;-49
2022/03/17 00:04:32;;;;;;;25.87;24.83;;;22.40;43.10;;;;;;5094170;28;20447;-49
2022/03/17 00:06:59;;;;;;;26.27;25.10;;;22.30;43.10;;;;;;5094331;28;20479;-49
2022/03/17 00:09:27;;;;;;;27.10;26.00;;;22.30;43.20;;;;;;5094215;28;20450;-51
2022/03/17 00:11:54;;;;;;;26.50;25.43;;;22.30;43.20;;;;;;5094311;28;21142;-49
2022/03/17 00:14:21;;;;;;;27.17;26.13;;;22.20;43.20;;;;;;5094055;28;20442;-52
2022/03/17 00:16:49;;;;;;;25.70;24.60;;;22.20;43.40;;;;;;5094371;28;20772;-49
2022/03/17 00:19:15;;;;;;;27.00;25.90;;;22.30;43.60;;;;;;5094082;28;20453;-51
2022/03/17 00:21:42;;;;;;;27.30;26.20;;;22.40;43.50;;;;;;5094107;28;20480;-49
2022/03/17 00:24:09;;;;;;;26.33;25.33;;;22.50;43.30;;;;;;5093968;28;20454;-49
2022/03/17 00:26:38;;;;;;;25.90;24.90;;;22.60;43.10;;;;;;5094076;28;20844;-48
2022/03/17 00:29:06;;;;;;;26.43;25.43;;;22.60;43.00;;;;;;5093940;28;20821;-52
2022/03/17 00:31:33;;;;;;;25.90;24.90;;;22.60;42.90;;;;;;5094060;28;20632;-49
2022/03/17 00:33:59;;;;;;;25.67;24.63;;;22.60;42.90;;;;;;5093676;28;20442;-53
2022/03/17 00:36:26;;;;;;;26.83;25.73;;;22.60;43.00;;;;;;5093948;28;20465;-51
2022/03/17 00:38:53;;;;;;;26.50;25.40;;;22.50;42.90;;;;;;5093833;28;20438;-52
2022/03/17 00:41:20;;;;;;;26.23;25.23;;;22.50;43.00;;;;;;5093562;28;20467;-50
2022/03/17 00:43:48;;;;;;;26.67;25.57;;;22.40;43.60;;;;;;5093746;28;20439;-49
2022/03/17 00:46:15;;;;;;;27.60;26.50;;;22.40;43.10;;;;;;5093795;28;20447;-50
2022/03/17 00:48:41;;;;;;;26.20;25.20;;;22.30;43.00;;;;;;5093391;28;20442;-51
2022/03/17 00:51:08;;;;;;;26.40;25.30;;;22.30;43.20;;;;;;5093384;28;20439;-50
2022/03/17 00:53:35;;;;;;;26.60;25.53;;;22.30;43.20;;;;;;5093668;28;20820;-49
2022/03/17 00:56:01;;;;;;;26.20;25.20;;;22.30;43.20;;;;;;5093491;28;20450;-49
2022/03/17 00:58:29;;;;;;;26.33;25.33;;;22.20;43.30;;;;;;5093361;28;20439;-53
2022/03/17 01:00:57;;;;;;;26.20;25.20;;;22.20;43.40;;;;;;5093122;28;20446;-51
2022/03/17 01:03:24;;;;;;;26.23;25.13;;;22.20;43.60;;;;;;5093397;28;20454;-49
2022/03/17 01:05:52;;;;;;;26.17;25.07;;;22.30;43.60;;;;;;5093439;28;20443;-49
2022/03/17 01:08:19;;;;;;;26.40;25.40;;;22.50;43.50;;;;;;5092992;28;20486;-49
2022/03/17 01:10:46;;;;;;;26.30;25.20;;;22.50;43.20;;;;;;5093324;28;20779;-54
2022/03/17 01:13:13;;;;;;;26.20;25.20;;;22.50;43.20;;;;;;5092943;28;20469;-51
2022/03/17 01:15:39;;;;;;;27.13;26.03;;;22.50;43.10;;;;;;5093217;28;20443;-51
2022/03/17 01:18:07;;;;;;;26.30;25.30;;;22.50;43.10;;;;;;5092985;28;20434;-52
2022/03/17 01:20:34;;;;;;;26.80;25.80;;;22.50;43.10;;;;;;5092827;28;20445;-51
2022/03/17 01:23:01;;;;;;;27.77;26.67;;;22.50;43.10;;;;;;5092907;28;20459;-49
2022/03/17 01:25:28;;;;;;;26.63;25.53;;;22.40;43.10;;;;;;5092943;28;20486;-50
2022/03/17 01:27:57;;;;;;;26.80;25.60;;;22.40;43.20;;;;;;5092654;28;20482;-50
2022/03/17 01:30:24;;;;;;;26.80;25.70;;;22.40;43.20;;;;;;5092544;28;20446;-50
2022/03/17 01:32:51;;;;;;;26.50;25.50;;;22.30;43.20;;;;;;5092727;28;20467;-49
2022/03/17 01:35:19;;;;;;;26.00;25.00;;;22.30;43.30;;;;;;5092816;28;20811;-49
2022/03/17 01:37:46;;;;;;;26.47;25.47;;;22.20;43.40;;;;;;5092600;28;20439;-49
2022/03/17 01:40:13;;;;;;;26.10;25.10;;;22.20;43.40;;;;;;5092382;28;20937;-49
2022/03/17 01:42:40;;;;;;;27.10;26.00;;;22.20;43.40;;;;;;5092530;28;20463;-49
2022/03/17 01:45:08;;;;;;;26.70;25.70;;;22.10;43.50;;;;;;5092702;28;20840;-49
2022/03/17 01:47:36;;;;;;;26.47;25.40;;;22.10;43.60;;;;;;5092427;28;20478;-53
2022/03/17 01:50:06;;;;;;;26.97;25.87;;;22.10;43.70;;;;;;5092129;28;20857;-49
2022/03/17 01:52:35;;;;;;;28.67;27.57;;;22.00;43.60;;;;;;5092409;28;20463;-53
2022/03/17 01:55:02;;;;;;;27.30;26.10;;;22.10;43.90;;;;;;5092284;28;20453;-48
2022/03/17 01:57:30;;;;;;;26.30;25.30;;;22.20;44.00;;;;;;5092201;28;20805;-50
2022/03/17 01:59:57;;;;;;;27.20;26.07;;;22.40;43.80;;;;;;5091940;28;20938;-50
2022/03/17 02:02:25;;;;;;;26.77;25.77;;;22.40;43.60;;;;;;5092080;28;20481;-50
2022/03/17 02:04:52;;;;;;;26.00;25.00;;;22.40;43.40;;;;;;5092130;28;20446;-49
2022/03/17 02:07:20;;;;;;;26.63;25.63;;;22.40;43.40;;;;;;5091883;28;20493;-50
2022/03/17 02:09:49;;;;;;;26.97;25.83;;;22.40;43.30;;;;;;5091876;28;20805;-49
2022/03/17 02:15:04;;;;;;;26.80;25.70;;;22.30;43.30;;;;;;5092109;28;20418;-50
2022/03/17 02:17:31;;;;;;;27.50;26.40;;;22.30;43.40;;;;;;5091879;28;20495;-49
2022/03/17 02:19:59;;;;;;;26.97;25.87;;;22.20;43.40;;;;;;5091663;28;20809;-50
2022/03/17 02:22:28;;;;;;;26.47;25.37;;;22.20;43.50;;;;;;5091959;28;20494;-53
2022/03/17 02:27:45;;;;;;;26.23;25.13;;;22.20;43.60;;;;;;5091680;28;20468;-50
2022/03/17 02:30:13;;;;;;;25.63;24.63;;;22.10;43.50;;;;;;5091548;28;20454;-49
2022/03/17 02:32:40;;;;;;;25.70;24.57;;;22.10;43.50;;;;;;5091760;28;20470;-49
2022/03/17 02:35:09;;;;;;;25.83;24.83;;;22.10;43.70;;;;;;5091629;28;20438;-52
2022/03/17 02:37:36;;;;;;;25.77;24.77;;;22.10;43.80;;;;;;5091508;28;20474;-53
2022/03/17 02:40:08;;;;;;;25.50;24.50;;;22.20;43.90;;;;;;5091418;28;20450;-49
2022/03/17 02:42:35;;;;;;;25.90;24.83;;;22.40;43.70;;;;;;5091734;28;20459;-49
2022/03/17 02:45:03;;;;;;;27.07;25.97;;;22.40;43.40;;;;;;5091681;28;20850;-50
2022/03/17 02:47:30;;;;;;;26.20;25.20;;;22.50;43.40;;;;;;5091430;28;20489;-55
2022/03/17 02:49:57;;;;;;;26.37;25.37;;;22.50;43.30;;;;;;5091325;28;20802;-50
2022/03/17 02:52:25;;;;;;;26.47;25.40;;;22.50;43.30;;;;;;5091718;28;20961;-53
2022/03/17 02:54:53;;;;;;;27.70;26.57;;;22.40;43.20;;;;;;5091788;28;20446;-49
2022/03/17 02:57:21;;;;;;;26.23;25.13;;;22.40;43.30;;;;;;5091178;28;20435;-49
2022/03/17 02:59:51;;;;;;;26.83;25.73;;;22.40;43.30;;;;;;5091492;28;20446;-51
2022/03/17 03:02:19;;;;;;;27.13;26.03;;;22.40;43.30;;;;;;5116447;22;20494;-46
2022/03/17 03:04:46;;;;;;;26.43;25.37;;;22.30;43.30;;;;;;5091405;28;20794;-46
2022/03/17 03:07:12;;;;;;;29.50;28.40;;;22.30;43.40;;;;;;5091192;28;20486;-46
2022/03/17 03:09:39;;;;;;;26.63;25.63;;;22.20;43.40;;;;;;5091430;28;20454;-46
2022/03/17 03:12:07;;;;;;;26.43;25.40;;;22.20;43.40;;;;;;5091193;28;20466;-47
2022/03/17 03:14:35;;;;;;;27.50;26.40;;;22.20;43.50;;;;;;5091473;28;20439;-47
2022/03/17 03:17:02;;;;;;;27.00;25.90;;;22.10;43.50;;;;;;5091142;28;20817;-46
2022/03/17 03:19:28;;;;;;;26.40;25.40;;;22.10;43.50;;;;;;5091283;28;20820;-46
2022/03/17 03:21:55;;;;;;;27.83;26.73;;;22.10;43.60;;;;;;5091362;28;20466;-46
2022/03/17 03:24:22;;;;;;;26.60;25.60;;;22.10;43.70;;;;;;5091307;28;20442;-46
2022/03/17 03:26:49;;;;;;;26.50;25.50;;;22.10;43.80;;;;;;5091140;28;20849;-46
2022/03/17 03:29:21;;;;;;;26.53;25.43;;;22.00;43.80;;;;;;5091086;28;21024;-49
2022/03/17 03:31:50;;;;;;;27.77;26.67;;;22.10;44.00;;;;;;5091183;28;20470;-46
2022/03/17 03:34:16;;;;;;;26.43;25.43;;;22.30;44.00;;;;;;5091437;28;20442;-47
2022/03/17 03:39:27;;;;;;;27.27;26.27;;;22.40;44.10;;;;;;5095036;28;20421;-46
2022/03/17 03:41:54;;;;;;;27.47;26.37;;;22.40;43.40;;;;;;5095026;28;20466;-46
2022/03/17 03:44:21;;;;;;;27.90;26.80;;;22.50;43.30;;;;;;5095045;28;20808;-47
2022/03/17 03:46:49;;;;;;;27.53;26.53;;;22.50;43.30;;;;;;5094546;28;20438;-46
2022/03/17 03:49:16;;;;;;;28.50;27.40;;;22.40;43.30;;;;;;5094378;28;20518;-46
2022/03/17 03:51:43;;;;;;;28.77;27.67;;;22.40;43.30;;;;;;5094139;28;20470;-46
2022/03/17 03:54:17;;;;;;;27.77;26.67;;;22.30;43.30;;;;;;5094872;28;20442;-46
2022/03/17 03:56:45;;;;;;;28.40;27.30;;;22.30;43.40;;;;;;5094552;28;20450;-46
2022/03/17 03:59:15;;;;;;;29.60;28.50;;;22.30;43.50;;;;;;5094519;28;20438;-46
2022/03/17 04:01:42;;;;;;;29.37;28.17;;;22.50;43.70;;;;;;5094465;28;20920;-46
2022/03/17 04:04:11;;;;;;;28.30;27.20;;;22.70;43.50;;;;;;5094658;28;20442;-46
2022/03/17 04:06:39;;;;;;;28.50;27.40;;;22.90;43.20;;;;;;5094312;28;20442;-46
2022/03/17 04:09:06;;;;;;;28.40;27.30;;;23.00;42.90;;;;;;5094279;28;20514;-46
2022/03/17 04:11:33;;;;;;;28.30;27.20;;;23.00;42.60;;;;;;5094366;28;20447;-48
2022/03/17 04:13:59;;;;;;;29.67;28.47;;;23.10;42.60;;;;;;5094454;28;20805;-46
2022/03/17 04:16:26;;;;;;;27.27;26.17;;;23.10;42.50;;;;;;5094103;28;20447;-48
2022/03/17 04:18:53;;;;;;;27.60;26.50;;;23.20;42.50;;;;;;5094155;28;20808;-48
2022/03/17 04:21:21;;;;;;;29.17;28.03;;;23.30;42.30;;;;;;5094128;28;20451;-46
2022/03/17 04:23:48;;;;;;;28.10;27.00;;;23.50;42.20;;;;;;5094208;28;20929;-46
2022/03/17 04:26:14;;;;;;;28.73;27.50;;;23.60;41.90;;;;;;5094252;28;20442;-46
2022/03/17 04:28:41;;;;;;;30.30;29.10;;;23.60;41.70;;;;;;5093658;28;20485;-47
2022/03/17 04:31:08;;;;;;;27.40;26.30;;;23.70;41.70;;;;;;5094053;28;20461;-47
2022/03/17 04:33:35;;;;;;;27.40;26.30;;;23.70;41.50;;;;;;5094027;28;20467;-46
2022/03/17 04:36:03;;;;;;;27.10;26.00;;;23.70;41.50;;;;;;5093988;28;20450;-45
2022/03/17 04:38:31;;;;;;;27.10;26.00;;;23.70;41.50;;;;;;5093642;28;20508;-46
2022/03/17 04:40:57;;;;;;;27.57;26.47;;;23.70;41.50;;;;;;5093979;28;20442;-46
2022/03/17 04:43:24;;;;;;;27.37;26.27;;;23.60;41.50;;;;;;5093712;28;20470;-49
2022/03/17 04:45:51;;;;;;;28.17;27.07;;;23.60;41.50;;;;;;5093742;28;20449;-46
2022/03/17 04:48:18;;;;;;;28.00;26.80;;;23.60;41.60;;;;;;5092632;28;20837;-46
2022/03/17 04:50:45;;;;;;;27.83;26.73;;;23.50;41.70;;;;;;5093799;28;20449;-45
2022/03/17 04:53:32;;;;;;;28.43;27.33;;;23.50;41.70;;;;;;5093643;28;20649;-46
2022/03/17 04:56:02;;;;;;;27.53;26.43;;;23.40;41.80;;;;;;5093775;28;20489;-46
2022/03/17 04:58:29;;;;;;;28.50;27.30;;;23.40;41.80;;;;;;5093136;28;20806;-46
2022/03/17 05:00:56;;;;;;;29.87;28.57;;;23.50;41.90;;;;;;5093420;28;20534;-46
2022/03/17 05:03:23;;;;;;;30.07;28.77;;;23.50;41.90;;;;;;5093241;28;20482;-46
2022/03/17 05:05:51;;;;;;;30.83;29.57;;;23.50;41.80;;;;;;5093207;28;20827;-46
2022/03/17 05:08:18;;;;;;;29.90;28.70;;;23.60;41.80;;;;;;5093096;28;20527;-46
2022/03/17 05:10:47;;;;;;;29.97;28.77;;;23.60;41.60;;;;;;5093283;28;20450;-46
2022/03/17 05:13:18;;;;;;;29.00;27.73;;;23.70;41.60;;;;;;5093122;28;20553;-46
2022/03/17 05:15:44;;;;;;;29.13;27.93;;;23.70;41.60;;;;;;5092978;28;20478;-46
2022/03/17 05:18:11;;;;;;;29.03;27.83;;;23.70;41.60;;;;;;5092651;28;20940;-46
2022/03/17 05:20:40;;;;;;;28.70;27.60;;;23.70;41.50;;;;;;5093014;28;20529;-44
2022/03/17 05:23:08;;;;;;;30.00;28.80;;;23.70;41.50;;;;;;5093032;28;20884;-45
2022/03/17 05:25:36;;;;;;;29.17;27.90;;;23.70;41.50;;;;;;5092808;28;20443;-45
2022/03/17 05:28:03;;;;;;;28.60;27.40;;;23.70;41.50;;;;;;5092744;28;20848;-45
2022/03/17 05:30:31;;;;;;;28.00;26.80;;;23.60;41.50;;;;;;5092805;28;20462;-44
2022/03/17 05:32:58;;;;;;;27.80;26.60;;;23.60;41.60;;;;;;5092905;28;20463;-44
2022/03/17 05:35:26;;;;;;;29.40;28.20;;;23.60;41.60;;;;;;5092554;28;20534;-46
2022/03/17 05:37:54;;;;;;;27.60;26.50;;;23.50;41.70;;;;;;5092751;28;20474;-47
2022/03/17 05:40:23;;;;;;;29.57;28.27;;;23.50;41.80;;;;;;5092698;28;20493;-44
2022/03/17 05:42:52;;;;;;;29.97;28.67;;;23.40;41.90;;;;;;5092709;28;20837;-47
2022/03/17 05:45:20;;;;;;;30.90;29.30;;;23.40;41.90;;;;;;5092410;28;20465;-44
2022/03/17 05:47:50;;;;;;;28.03;26.83;;;23.30;42.00;;;;;;5092450;28;20442;-44
2022/03/17 05:50:20;;;;;;;30.53;29.23;;;23.30;42.10;;;;;;5092817;28;20450;-44
2022/03/17 05:52:48;;;;;;;28.40;27.10;;;23.30;42.30;;;;;;5092486;28;20970;-44
2022/03/17 05:55:17;;;;;;;30.40;29.10;;;23.20;42.30;;;;;;5092122;28;20445;-44
2022/03/17 05:57:46;;;;;;;31.33;29.93;;;23.20;42.40;;;;;;5091959;28;20818;-50
2022/03/17 06:00:15;;;;;;;31.30;30.00;;;23.20;42.60;;;;;;5091377;28;20442;-44
2022/03/17 06:02:42;;;;;;;33.43;32.00;;;23.10;42.60;;;;;;5092120;28;20861;-44
2022/03/17 06:05:11;;;;;;;31.60;30.30;;;23.10;42.80;;;;;;5092066;28;20442;-44
2022/03/17 06:07:38;;;;;;;30.77;29.47;;;23.10;42.90;;;;;;5092131;28;20454;-49
2022/03/17 06:10:06;;;;;;;31.03;29.63;;;23.10;43.00;;;;;;5092130;28;20506;-44
2022/03/17 06:12:33;;;;;;;31.13;29.73;;;23.10;43.10;;;;;;5092095;28;20836;-43
2022/03/17 06:15:01;;;;;;;30.33;29.03;;;23.10;43.10;;;;;;5092120;28;20458;-47
2022/03/17 06:17:39;;;;;;;30.67;29.37;;;23.10;43.10;;;;;;5091618;28;20481;-49
2022/03/17 06:20:07;;;;;;;29.67;28.37;;;23.10;43.10;;;;;;5092086;28;20472;-45
2022/03/17 06:22:35;;;;;;;30.13;28.73;;;23.10;43.10;;;;;;5092024;28;20557;-47
2022/03/17 06:25:02;;;;;;;30.90;29.50;;;23.10;43.20;;;;;;5091913;28;20965;-46
2022/03/17 06:27:29;;;;;;;31.20;29.40;;;23.10;43.20;;;;;;5091830;28;20449;-46
2022/03/17 06:29:55;;;;;;;29.50;28.00;;;23.10;43.30;;;;;;5091329;28;20544;-45
2022/03/17 06:32:24;;;;;;;31.43;30.03;;;23.10;43.30;;;;;;5091575;28;20835;-45
2022/03/17 06:34:50;;;;;;;30.60;29.30;;;23.00;43.20;;;;;;5091914;28;20988;-47
2022/03/17 06:37:17;;;;;;;31.70;30.30;;;23.00;43.20;;;;;;5091676;28;20447;-44
2022/03/17 06:39:45;;;;;;;30.83;29.33;;;23.00;43.20;;;;;;5091707;28;20441;-44
2022/03/17 06:42:12;;;;;;;30.27;28.93;;;23.00;43.30;;;;;;5091523;28;21007;-44
2022/03/17 06:44:39;;;;;;;30.20;28.83;;;22.90;43.40;;;;;;5091652;28;20451;-44
2022/03/17 06:47:05;;;;;;;29.73;28.33;;;22.90;43.40;;;;;;5091643;28;20952;-45
2022/03/17 06:49:32;;;;;;;30.43;29.03;;;22.90;43.50;;;;;;5091545;28;20485;-44
2022/03/17 06:51:59;;;;;;;31.37;30.07;;;22.90;43.50;;;;;;5091603;28;20469;-50
2022/03/17 06:54:26;;;;;;;30.80;29.30;;;22.90;43.40;;;;;;5091438;28;20940;-45
2022/03/17 06:56:54;;;;;;;31.77;30.33;;;22.90;43.50;;;;;;5091694;28;20478;-47
2022/03/17 06:59:21;;;;;;;31.20;29.70;;;22.90;43.90;;;;;;5091300;28;20470;-45
2022/03/17 07:01:48;;;;;;;31.83;30.03;;;22.90;44.50;;;;;;5091353;28;20527;-47
2022/03/17 07:04:15;;;;;;;34.10;32.20;;;23.00;45.40;;;;;;5091720;28;20442;-45
2022/03/17 07:06:42;;;;;;;33.50;31.23;;;23.00;46.30;;;;;;5091284;28;20442;-49
2022/03/17 07:09:08;;;;;;;36.80;33.70;;;22.90;47.60;;;;;;5090965;28;21046;-48
2022/03/17 07:11:35;;;;;;;33.97;32.00;;;22.90;48.00;;;;;;5094436;28;20817;-50
2022/03/17 07:14:03;;;;;;;34.77;32.60;;;23.00;49.20;;;;;;5095607;28;20455;-47
2022/03/17 07:16:30;;;;;;;35.80;33.60;;;23.00;49.50;;;;;;5095689;28;20912;-45
2022/03/17 07:18:58;;;;;;;36.73;33.93;;;23.00;51.20;;;;;;5094188;28;20443;-50
2022/03/17 07:21:24;;;;;;;34.30;32.03;;;23.00;52.60;;;;;;5094326;28;20442;-47
2022/03/17 07:23:51;;;;;;;38.13;35.60;;;23.10;51.80;;;;;;5095477;28;20443;-46
2022/03/17 07:26:18;;;;;;;33.87;31.90;;;23.20;50.80;;;;;;5095401;28;20447;-48
2022/03/17 07:28:45;;;;;;;35.50;33.07;;;23.30;49.60;;;;;;5094832;28;20489;-45
2022/03/17 07:31:13;;;;;;;32.23;30.00;;;23.30;48.70;;;;;;5095258;28;20449;-45
2022/03/17 07:33:40;;;;;;;32.83;30.50;;;23.40;48.00;;;;;;5094981;28;20481;-48
2022/03/17 07:36:07;;;;;;;33.40;31.40;;;23.40;47.60;;;;;;5095067;28;20464;-46
2022/03/17 07:38:34;;;;;;;31.27;29.53;;;23.50;47.10;;;;;;5094955;28;20446;-46
2022/03/17 07:41:00;;;;;;;32.40;30.50;;;23.50;46.50;;;;;;5095025;28;20442;-49
2022/03/17 07:43:27;;;;;;;31.47;29.73;;;23.50;46.30;;;;;;5094972;28;20462;-50
2022/03/17 07:45:54;;;;;;;31.90;30.20;;;23.50;46.10;;;;;;5094979;28;20803;-45
2022/03/17 07:48:22;;;;;;;31.03;29.37;;;23.50;45.90;;;;;;5094601;28;20934;-46
2022/03/17 07:50:50;;;;;;;30.80;29.30;;;23.40;45.60;;;;;;5094913;28;20807;-48
2022/03/17 07:53:16;;;;;;;31.20;29.70;;;23.30;45.30;;;;;;5094860;28;20624;-45
2022/03/17 07:55:44;;;;;;;30.23;28.83;;;23.30;45.30;;;;;;5094790;28;20447;-45
2022/03/17 07:58:11;;;;;;;29.83;28.13;;;23.20;45.10;;;;;;5094540;28;20445;-48
2022/03/17 08:00:39;;;;;;;33.27;31.20;;;23.20;45.00;;;;;;5094851;28;20805;-47
2022/03/17 08:03:06;;;;;;;29.90;28.40;;;23.20;45.00;;;;;;5094424;28;20973;-46
2022/03/17 08:05:34;;;;;;;30.90;29.40;;;23.10;44.70;;;;;;5094742;28;20438;-46
2022/03/17 08:08:02;;;;;;;30.57;28.73;;;23.10;44.70;;;;;;5094521;28;20449;-45
2022/03/17 08:10:29;;;;;;;30.50;29.10;;;23.10;44.70;;;;;;5094384;28;20539;-45
2022/03/17 08:12:55;;;;;;;30.77;29.10;;;23.10;44.70;;;;;;5094331;28;21042;-49
2022/03/17 08:15:23;;;;;;;31.57;29.80;;;23.00;44.50;;;;;;5094456;28;20434;-50
2022/03/17 08:17:50;;;;;;;29.70;28.30;;;22.90;44.50;;;;;;5094188;28;20503;-46
2022/03/17 08:20:17;;;;;;;28.90;27.43;;;22.80;44.40;;;;;;5094309;28;20802;-44
2022/03/17 08:22:45;;;;;;;29.60;28.07;;;22.80;44.40;;;;;;5093199;28;20996;-48
2022/03/17 08:25:12;;;;;;;29.77;28.20;;;22.80;44.60;;;;;;5094260;28;20454;-48
2022/03/17 08:27:40;;;;;;;30.03;28.63;;;22.70;44.40;;;;;;5094061;28;20442;-48
2022/03/17 08:30:07;;;;;;;29.43;28.13;;;22.70;44.50;;;;;;5094022;28;20632;-44
2022/03/17 08:32:34;;;;;;;29.33;28.03;;;22.60;44.30;;;;;;5094037;28;20588;-47
2022/03/17 08:35:01;;;;;;;28.70;27.40;;;22.60;44.30;;;;;;5094100;28;20792;-46
2022/03/17 08:37:27;;;;;;;29.80;28.30;;;22.60;44.30;;;;;;5093815;28;20457;-45
2022/03/17 08:39:56;;;;;;;28.60;27.40;;;22.50;44.30;;;;;;5093981;28;20443;-48
2022/03/17 08:42:22;;;;;;;29.20;27.97;;;22.50;44.20;;;;;;5093749;28;20516;-48
2022/03/17 08:44:49;;;;;;;28.90;27.70;;;22.50;44.40;;;;;;5093925;28;20446;-48
2022/03/17 08:50:06;;;;;;;29.30;28.00;;;22.40;44.40;;;;;;5054614;28;20570;-45
2022/03/17 08:52:33;;;;;;;27.10;25.90;;;22.40;44.40;;;;;;5093769;28;20552;-45
2022/03/17 08:55:01;;;;;;;28.57;27.33;;;22.40;44.40;;;;;;5093623;28;20940;-45
2022/03/17 08:57:28;;;;;;;27.40;26.30;;;22.50;44.20;;;;;;5093443;28;20965;-45
2022/03/17 08:59:55;;;;;;;29.50;27.83;;;22.50;44.10;;;;;;5093557;28;20450;-47
2022/03/17 09:02:23;;;;;;;27.80;26.67;;;22.60;44.10;;;;;;5118236;22;20483;-47
2022/03/17 09:04:50;;;;;;;28.30;27.03;;;22.70;43.90;;;;;;5093417;28;20442;-49
2022/03/17 09:07:16;;;;;;;28.10;26.90;;;22.80;43.70;;;;;;5093346;28;20439;-50
2022/03/17 09:09:45;;;;;;;28.40;27.13;;;22.80;43.50;;;;;;5093194;28;20482;-51
2022/03/17 09:12:13;;;;;;;28.30;27.10;;;23.00;43.40;;;;;;5093300;28;20471;-50
2022/03/17 09:14:41;;;;;;;26.93;25.83;;;23.10;43.30;;;;;;5093432;28;20447;-49
2022/03/17 09:17:08;;;;;;;27.40;26.20;;;23.20;43.10;;;;;;5093240;28;20478;-48
2022/03/17 09:19:35;;;;;;;28.57;27.37;;;23.20;42.90;;;;;;5092906;28;20445;-49
2022/03/17 09:22:02;;;;;;;28.70;27.50;;;23.20;42.80;;;;;;5093088;28;21000;-49
2022/03/17 09:24:30;;;;;;;29.83;28.53;;;23.20;42.70;;;;;;5093067;28;20442;-51
2022/03/17 09:26:57;;;;;;;27.53;26.30;;;23.20;42.60;;;;;;5093029;28;20450;-49
2022/03/17 09:29:28;;;;;;;27.30;26.20;;;23.10;42.60;;;;;;5092765;28;20992;-48
2022/03/17 09:31:58;;;;;;;27.47;26.37;;;23.10;42.60;;;;;;5092958;28;20442;-54
2022/03/17 09:34:24;;;;;;;26.93;25.73;;;23.10;42.60;;;;;;5092862;28;20824;-49
2022/03/17 09:36:51;;;;;;;27.20;26.10;;;23.10;42.80;;;;;;5092870;28;20442;-48
2022/03/17 09:42:02;;;;;;;26.80;25.70;;;23.00;42.60;;;;;;5092803;28;20437;-50
2022/03/17 09:44:30;;;;;;;27.57;26.43;;;23.00;42.70;;;;;;5092807;28;20443;-48
2022/03/17 09:46:59;;;;;;;27.43;26.30;;;22.90;42.70;;;;;;5092686;28;20443;-52
2022/03/17 09:49:27;;;;;;;27.83;26.73;;;22.90;42.70;;;;;;5092310;28;20514;-49
2022/03/17 09:51:55;;;;;;;30.40;29.10;;;22.90;42.70;;;;;;5092663;28;20468;-51
2022/03/17 09:54:22;;;;;;;30.67;29.40;;;22.90;42.60;;;;;;5092477;28;20548;-49
2022/03/17 09:56:49;;;;;;;31.57;30.37;;;22.80;42.50;;;;;;5092522;28;20443;-49
2022/03/17 09:59:16;;;;;;;32.77;31.40;;;22.90;42.50;;;;;;5092284;28;20439;-51
2022/03/17 10:01:45;;;;;;;31.53;30.20;;;22.90;42.40;;;;;;5092221;28;20443;-49
2022/03/17 10:04:12;;;;;;;31.20;29.90;;;22.90;42.30;;;;;;5092397;28;20500;-50
2022/03/17 10:06:39;;;;;;;30.70;29.50;;;22.90;42.20;;;;;;5092420;28;20465;-49
2022/03/17 10:09:06;;;;;;;30.13;28.93;;;22.80;42.20;;;;;;5092045;28;20529;-49
2022/03/17 10:11:37;;;;;;;32.77;31.47;;;22.80;42.30;;;;;;5092253;28;20805;-49
2022/03/17 10:14:05;;;;;;;31.17;29.80;;;22.90;42.30;;;;;;5092267;28;20439;-50
2022/03/17 10:16:33;;;;;;;30.43;29.33;;;22.90;42.20;;;;;;5092231;28;20446;-48
2022/03/17 10:19:03;;;;;;;31.20;29.70;;;22.90;42.00;;;;;;5091964;28;20524;-48
2022/03/17 10:21:30;;;;;;;29.00;27.80;;;22.90;42.10;;;;;;5092120;28;20443;-48
2022/03/17 10:23:59;;;;;;;26.33;25.33;;;22.80;42.00;;;;;;5091938;28;20466;-51
2022/03/17 10:26:38;;;;;;;28.33;27.13;;;22.70;42.10;;;;;;5092055;28;20438;-48
2022/03/17 10:29:14;;;;;;;26.93;25.90;;;22.70;42.20;;;;;;5091771;28;20445;-52
2022/03/17 10:31:58;;;;;;;26.10;25.10;;;22.70;42.40;;;;;;5091896;28;20956;-48
2022/03/17 10:34:29;;;;;;;27.67;26.47;;;22.70;42.40;;;;;;5091829;28;20520;-49
2022/03/17 10:37:07;;;;;;;27.80;26.70;;;22.70;42.30;;;;;;5091912;28;20446;-52
2022/03/17 10:39:38;;;;;;;28.03;26.83;;;22.80;42.30;;;;;;5091606;28;20941;-50
2022/03/17 10:42:14;;;;;;;28.73;27.63;;;22.90;42.30;;;;;;5091673;28;21010;-50
2022/03/17 10:44:41;;;;;;;28.83;27.50;;;22.90;42.20;;;;;;5091425;28;20963;-50
2022/03/17 10:47:09;;;;;;;26.87;25.87;;;23.00;42.20;;;;;;5091777;28;20443;-49
2022/03/17 10:49:37;;;;;;;28.90;27.80;;;23.10;42.10;;;;;;5091377;28;20518;-49
2022/03/17 10:52:05;;;;;;;27.93;26.93;;;23.20;42.00;;;;;;5091642;28;20462;-49
2022/03/17 10:54:33;;;;;;;28.00;27.00;;;23.30;42.00;;;;;;5091749;28;20521;-50
2022/03/17 10:57:02;;;;;;;26.60;25.60;;;23.30;41.80;;;;;;5091699;28;20478;-50
2022/03/17 10:59:39;;;;;;;27.80;26.80;;;23.30;41.60;;;;;;5091639;28;20447;-51
2022/03/17 11:02:09;;;;;;;27.13;26.03;;;23.40;41.50;;;;;;5091360;28;20466;-48
2022/03/17 11:04:38;;;;;;;27.00;26.00;;;23.40;41.40;;;;;;5091688;28;20443;-49
2022/03/17 11:07:07;;;;;;;28.10;27.10;;;23.40;41.30;;;;;;5091420;28;20438;-49
2022/03/17 11:09:36;;;;;;;27.23;26.17;;;23.50;41.40;;;;;;5091266;28;20443;-49
2022/03/17 11:12:04;;;;;;;28.30;27.30;;;23.50;41.80;;;;;;5091280;28;20546;-49
2022/03/17 11:14:31;;;;;;;28.27;27.27;;;23.50;41.30;;;;;;5091487;28;20446;-49
2022/03/17 11:17:02;;;;;;;28.17;26.97;;;23.60;41.30;;;;;;5091487;28;20482;-51
2022/03/17 11:19:29;;;;;;;29.00;27.90;;;23.60;41.10;;;;;;5091140;28;20446;-51
2022/03/17 11:22:08;;;;;;;26.40;25.40;;;23.60;41.10;;;;;;5091388;28;20913;-49
2022/03/17 11:24:35;;;;;;;27.90;26.77;;;23.60;41.10;;;;;;5091350;28;20478;-50
2022/03/17 11:27:10;;;;;;;27.23;26.03;;;23.50;41.10;;;;;;5091318;28;20454;-50
2022/03/17 11:29:44;;;;;;;26.50;25.50;;;23.50;41.10;;;;;;5091078;28;20812;-49
2022/03/17 11:32:25;;;;;;;27.03;25.93;;;23.40;41.00;;;;;;5091319;28;20520;-49
2022/03/17 11:35:07;;;;;;;26.20;25.20;;;23.40;41.20;;;;;;5091377;28;20445;-49
2022/03/17 11:37:35;;;;;;;25.33;24.33;;;23.30;41.20;;;;;;5091157;28;20438;-49
2022/03/17 11:40:08;;;;;;;25.90;24.80;;;23.20;41.30;;;;;;5091183;28;20439;-49
2022/03/17 11:42:40;;;;;;;25.47;24.40;;;23.10;41.30;;;;;;5091128;28;20462;-49
2022/03/17 11:45:28;;;;;;;26.10;25.10;;;23.10;41.40;;;;;;5091201;28;20445;-50
2022/03/17 11:47:57;;;;;;;28.23;27.13;;;23.20;41.50;;;;;;5090862;28;20537;-51
2022/03/17 11:50:25;;;;;;;27.73;26.63;;;23.20;41.50;;;;;;5090951;28;20490;-49
2022/03/17 11:52:58;;;;;;;29.90;28.80;;;23.20;41.40;;;;;;5090933;28;20466;-49
2022/03/17 11:55:32;;;;;;;29.10;27.90;;;23.20;41.50;;;;;;5091101;28;20778;-49
2022/03/17 11:58:28;;;;;;;30.57;29.33;;;23.30;41.40;;;;;;5092979;28;20454;-49
2022/03/17 12:01:02;;;;;;;28.93;27.83;;;23.40;41.20;;;;;;5059455;28;20583;-50
2022/03/17 12:03:31;;;;;;;30.40;29.20;;;23.40;41.00;;;;;;5094655;28;20469;-53
2022/03/17 12:06:09;;;;;;;31.67;30.17;;;23.40;41.00;;;;;;5094566;28;20929;-50
2022/03/17 12:08:39;;;;;;;28.60;27.50;;;23.30;41.00;;;;;;5094498;28;20434;-49
2022/03/17 12:11:08;;;;;;;28.53;27.43;;;23.20;41.00;;;;;;5094537;28;20512;-49
2022/03/17 12:13:36;;;;;;;29.30;28.20;;;23.40;41.10;;;;;;5094460;28;20469;-48
2022/03/17 12:16:04;;;;;;;28.67;27.57;;;23.80;40.80;;;;;;5094404;28;20446;-50
2022/03/17 12:18:30;;;;;;;30.37;29.17;;;24.20;40.30;;;;;;5094283;28;20443;-49
2022/03/17 12:20:58;;;;;;;30.60;29.40;;;24.70;39.70;;;;;;5094499;28;20439;-51
2022/03/17 12:23:46;;;;;;;30.70;29.50;;;25.30;39.20;;;;;;5094411;28;20463;-52
2022/03/17 12:26:13;;;;;;;35.50;34.10;;;26.00;38.30;;;;;;5094398;28;20476;-49
2022/03/17 12:28:44;;;;;;;31.33;30.03;;;26.30;37.40;;;;;;5094194;28;20819;-49
2022/03/17 12:31:11;;;;;;;30.30;29.10;;;26.00;37.20;;;;;;5094298;28;20493;-50
2022/03/17 12:33:39;;;;;;;28.63;27.53;;;25.90;37.30;;;;;;5094123;28;20462;-51
2022/03/17 12:36:07;;;;;;;30.90;29.70;;;25.70;37.40;;;;;;5094150;28;20451;-50
2022/03/17 12:38:34;;;;;;;29.97;28.73;;;25.50;37.60;;;;;;5093983;28;20442;-49
2022/03/17 12:41:02;;;;;;;29.60;28.40;;;25.40;37.90;;;;;;5094096;28;20447;-50
2022/03/17 12:43:34;;;;;;;28.97;27.77;;;25.60;38.10;;;;;;5093977;28;21054;-49
2022/03/17 12:46:01;;;;;;;30.10;29.00;;;25.80;37.80;;;;;;5094034;28;20824;-49
2022/03/17 12:48:30;;;;;;;30.80;29.60;;;26.10;37.40;;;;;;5093538;28;20450;-50